createdAt,value
2019-02-22T00:09:01.068Z,41.13
2019-02-22T00:11:34.995Z,42.47
2019-02-22T00:14:04.515Z,43.43
2019-02-22T00:16:34.259Z,42.17
2019-02-22T00:19:04.551Z,41.20
2019-02-22T00:21:35.981Z,42.17
2019-02-22T00:24:05.371Z,42.10
2019-02-22T00:32:32.229Z,41.17
2019-02-22T00:35:04.971Z,40.23
2019-02-22T00:37:34.898Z,40.37
2019-02-22T00:40:29.540Z,43.53
2019-02-22T00:43:01.422Z,44.07
2019-02-22T00:51:37.791Z,43.73
2019-02-22T00:54:09.191Z,43.17
2019-02-22T00:56:48.334Z,42.73
2019-02-22T00:59:19.582Z,43.87
2019-02-22T01:04:53.869Z,42.30
2019-02-22T01:07:24.330Z,42.03
2019-02-22T01:09:55.750Z,41.30
2019-02-22T01:12:24.524Z,42.03
2019-02-22T01:14:54.200Z,43.70
2019-02-22T01:17:23.731Z,41.27
2019-02-22T01:19:57.379Z,39.53
2019-02-22T01:25:43.187Z,38.80
2019-02-22T01:28:12.642Z,38.60
2019-02-22T01:30:45.042Z,37.83
2019-02-22T01:33:25.752Z,38.53
2019-02-22T01:35:55.123Z,39.23
2019-02-22T01:38:29.135Z,39.07
2019-02-22T01:41:00.116Z,40.80
2019-02-22T01:43:39.187Z,37.63
2019-02-22T01:49:13.615Z,39.27
2019-02-22T01:51:47.694Z,40.67
2019-02-22T01:54:22.584Z,41.77
2019-02-22T01:56:53.794Z,40.03
2019-02-22T01:59:28.586Z,37.40
2019-02-22T02:01:58.267Z,38.33
2019-02-22T02:04:29.072Z,39.03
2019-02-22T02:10:11.631Z,35.53
2019-02-22T02:13:03.448Z,35.73
2019-02-22T02:15:37.639Z,34.67
2019-02-22T02:18:09.256Z,33.87
2019-02-22T02:20:40.329Z,36.70
2019-02-22T02:23:10.708Z,34.23
2019-02-22T02:26:01.811Z,34.43
2019-02-22T02:28:34.782Z,33.87
2019-02-22T02:31:16.561Z,33.03
2019-02-22T02:36:50.067Z,33.93
2019-02-22T02:39:20.581Z,34.07
2019-02-22T02:42:09.551Z,34.03
2019-02-22T02:44:41.610Z,33.23
2019-02-22T02:47:15.206Z,32.20
2019-02-22T02:50:03.976Z,33.90
2019-02-22T02:52:36.145Z,36.13
2019-02-22T02:55:42.770Z,36.97
2019-02-22T02:58:19.062Z,36.00
2019-02-22T03:00:50.748Z,37.23
2019-02-22T03:06:42.580Z,37.20
2019-02-22T03:09:14.322Z,35.80
2019-02-22T03:11:51.342Z,36.43
2019-02-22T03:17:47.176Z,35.27
2019-02-22T03:20:36.204Z,35.67
2019-02-22T03:23:48.525Z,35.57
2019-02-22T03:26:21.042Z,34.87
2019-02-22T03:28:56.185Z,33.87
2019-02-22T03:31:30.574Z,33.73
2019-02-22T03:34:02.817Z,37.80
2019-02-22T03:36:34.922Z,32.83
2019-02-22T03:39:07.211Z,34.40
2019-02-22T03:44:45.635Z,33.90
2019-02-22T03:59:00.884Z,32.73
2019-02-22T04:04:58.155Z,30.97
2019-02-22T04:07:46.750Z,29.90
2019-02-22T04:10:18.719Z,33.63
2019-02-22T04:12:52.019Z,33.23
2019-02-22T04:15:24.628Z,33.83
2019-02-22T04:18:16.748Z,32.07
2019-02-22T04:23:51.501Z,32.80
2019-02-22T04:29:25.649Z,33.30
2019-02-22T04:31:59.536Z,34.60
2019-02-22T04:34:37.900Z,31.77
2019-02-22T04:37:10.924Z,33.33
2019-02-22T04:39:46.156Z,33.37
2019-02-22T04:45:20.401Z,33.43
2019-02-22T04:48:07.056Z,32.93
2019-02-22T04:50:58.992Z,32.67
2019-02-22T04:53:32.276Z,34.13
2019-02-22T04:56:12.858Z,30.47
2019-02-22T04:58:46.924Z,29.97
2019-02-22T05:01:21.611Z,28.60
2019-02-22T05:03:53.396Z,30.93
2019-02-22T05:09:29.097Z,29.50
2019-02-22T05:15:11.980Z,39.60
2019-02-22T05:17:41.913Z,37.00
2019-02-22T05:20:13.263Z,36.13
2019-02-22T05:22:46.441Z,37.03
2019-02-22T05:33:46.872Z,38.73
2019-02-22T05:36:15.669Z,37.97
2019-02-22T05:38:49.727Z,39.40
2019-02-22T05:41:19.663Z,39.77
2019-02-22T05:43:54.284Z,43.33
2019-02-22T05:46:34.816Z,53.80
2019-02-22T05:49:14.327Z,50.67
2019-02-22T05:51:57.091Z,47.77
2019-02-22T05:54:27.883Z,44.33
2019-02-22T05:57:03.906Z,46.23
2019-02-22T05:59:41.853Z,44.30
2019-02-22T06:02:19.112Z,43.57
2019-02-22T06:04:52.720Z,47.47
2019-02-22T06:07:24.007Z,51.80
2019-02-22T06:09:53.525Z,51.63
2019-02-22T06:12:34.077Z,52.43
2019-02-22T06:14:55.351Z,53.77
2019-02-22T06:17:26.914Z,51.40
2019-02-22T06:19:59.157Z,51.10
2019-02-22T06:22:29.880Z,50.37
2019-02-22T06:24:59.087Z,49.57
2019-02-22T06:27:28.438Z,49.93
2019-02-22T06:32:59.889Z,44.10
2019-02-22T06:35:29.313Z,39.70
2019-02-22T06:37:58.624Z,39.47
2019-02-22T06:40:27.151Z,36.00
2019-02-22T06:42:56.575Z,26.13
2019-02-22T06:45:25.082Z,28.40
2019-02-22T06:47:53.615Z,27.87
2019-02-22T06:50:33.145Z,28.90
2019-02-22T06:53:11.346Z,31.37
2019-02-22T06:55:40.666Z,30.43
2019-02-22T06:58:11.781Z,33.03
2019-02-22T07:00:59.185Z,36.80
2019-02-22T07:03:46.500Z,40.07
2019-02-22T07:06:15.838Z,39.63
2019-02-22T07:08:44.247Z,39.30
2019-02-22T07:11:26.350Z,38.17
2019-02-22T07:13:54.861Z,37.10
2019-02-22T07:16:24.208Z,34.57
2019-02-22T07:18:53.536Z,33.43
2019-02-22T07:21:22.869Z,31.60
2019-02-22T07:23:52.192Z,29.53
2019-02-22T07:26:21.511Z,24.80
2019-02-22T07:28:50.846Z,26.20
2019-02-22T07:31:20.166Z,20.17
2019-02-22T07:33:49.512Z,19.27
2019-02-22T07:36:18.038Z,20.13
2019-02-22T07:38:47.562Z,17.33
2019-02-22T07:41:16.915Z,14.50
2019-02-22T07:43:46.346Z,16.13
2019-02-22T07:46:15.662Z,16.17
2019-02-22T07:48:45.013Z,17.73
2019-02-22T07:51:14.337Z,17.37
2019-02-22T07:53:43.673Z,16.57
2019-02-22T07:56:12.996Z,16.67
2019-02-22T07:58:42.315Z,15.93
2019-02-22T08:01:11.638Z,20.87
2019-02-22T08:03:40.069Z,18.27
2019-02-22T08:06:08.698Z,17.57
2019-02-22T08:08:38.026Z,18.07
2019-02-22T08:11:07.470Z,19.77
2019-02-22T08:13:36.803Z,18.97
2019-02-22T08:16:06.139Z,16.43
2019-02-22T08:18:35.436Z,14.77
2019-02-22T08:21:04.051Z,15.23
2019-02-22T08:23:33.446Z,14.67
2019-02-22T08:26:02.861Z,14.93
2019-02-22T08:28:32.186Z,14.07
2019-02-22T08:31:00.756Z,13.97
2019-02-22T08:33:29.191Z,12.63
2019-02-22T08:35:58.530Z,13.33
2019-02-22T08:38:27.859Z,11.50
2019-02-22T08:40:57.295Z,13.40
2019-02-22T08:43:31.477Z,12.63
2019-02-22T08:46:15.862Z,12.43
2019-02-22T08:48:45.185Z,11.30
2019-02-22T08:51:14.546Z,11.07
2019-02-22T08:53:42.960Z,11.90
2019-02-22T08:56:12.274Z,11.67
2019-02-22T08:58:40.791Z,10.97
2019-02-22T09:01:10.115Z,12.30
2019-02-22T09:06:21.985Z,12.70
2019-02-22T09:08:51.308Z,12.87
2019-02-22T09:11:20.633Z,12.30
2019-02-22T09:13:49.967Z,11.93
2019-02-22T09:16:19.291Z,11.90
2019-02-22T09:18:48.631Z,12.03
2019-02-22T09:21:17.962Z,12.00
2019-02-22T09:23:47.284Z,11.03
2019-02-22T09:26:16.606Z,11.93
2019-02-22T09:28:45.938Z,11.70
2019-02-22T09:31:15.270Z,11.47
2019-02-22T09:33:44.607Z,11.27
2019-02-22T09:36:13.966Z,11.60
2019-02-22T09:38:43.292Z,11.80
2019-02-22T09:41:12.607Z,11.40
2019-02-22T09:43:41.954Z,12.47
2019-02-22T09:46:11.311Z,10.83
2019-02-22T09:48:39.820Z,12.27
2019-02-22T09:51:09.162Z,12.97
2019-02-22T09:53:38.492Z,13.83
2019-02-22T09:56:06.916Z,12.97
2019-02-22T09:58:35.426Z,15.67
2019-02-22T10:01:04.790Z,15.27
2019-02-22T10:03:34.136Z,13.37
2019-02-22T10:06:03.451Z,13.23
2019-02-22T10:08:32.773Z,15.00
2019-02-22T10:11:02.086Z,13.70
2019-02-22T10:13:31.436Z,14.53
2019-02-22T10:16:00.773Z,15.10
2019-02-22T10:18:30.092Z,15.03
2019-02-22T10:20:58.644Z,15.40
2019-02-22T10:23:27.982Z,14.27
2019-02-22T10:25:57.306Z,14.07
2019-02-22T10:28:26.637Z,13.67
2019-02-22T10:30:55.971Z,14.07
2019-02-22T10:33:35.950Z,13.63
2019-02-22T10:36:14.520Z,14.63
2019-02-22T10:38:43.854Z,13.70
2019-02-22T10:41:13.179Z,13.07
2019-02-22T10:43:41.723Z,13.90
2019-02-22T10:46:10.241Z,13.77
2019-02-22T10:48:38.671Z,14.23
2019-02-22T10:51:25.997Z,14.00
2019-02-22T10:53:54.543Z,14.33
2019-02-22T10:56:23.876Z,14.03
2019-02-22T10:58:53.210Z,13.70
2019-02-22T11:01:21.723Z,14.70
2019-02-22T11:03:51.072Z,14.20
2019-02-22T11:06:19.595Z,14.73
2019-02-22T11:08:48.907Z,14.87
2019-02-22T11:11:18.267Z,15.83
2019-02-22T11:13:46.786Z,14.90
2019-02-22T11:16:15.301Z,16.17
2019-02-22T11:18:43.736Z,15.07
2019-02-22T11:21:12.257Z,14.03
2019-02-22T11:23:41.682Z,15.30
2019-02-22T11:26:11.508Z,15.97
2019-02-22T11:28:40.907Z,16.33
2019-02-22T11:31:10.424Z,14.97
2019-02-22T11:33:40.242Z,13.97
2019-02-22T11:36:09.718Z,13.53
2019-02-22T11:38:39.153Z,13.10
2019-02-22T11:41:08.524Z,14.13
2019-02-22T11:43:37.984Z,14.70
2019-02-22T11:46:06.611Z,13.47
2019-02-22T11:48:36.099Z,12.37
2019-02-22T11:51:04.619Z,12.60
2019-02-22T11:53:33.969Z,13.87
2019-02-22T11:56:03.378Z,11.93
2019-02-22T11:58:32.907Z,11.47
2019-02-22T12:03:45.392Z,12.40
2019-02-22T12:06:14.724Z,11.73
2019-02-22T12:08:43.254Z,13.13
2019-02-22T12:11:12.606Z,11.80
2019-02-22T12:13:41.949Z,12.40
2019-02-22T12:16:11.376Z,11.27
2019-02-22T12:18:40.704Z,11.90
2019-02-22T12:21:10.015Z,12.40
2019-02-22T12:23:39.345Z,13.07
2019-02-22T12:26:08.655Z,11.43
2019-02-22T12:28:37.181Z,12.80
2019-02-22T12:31:06.514Z,12.23
2019-02-22T12:33:36.509Z,13.00
2019-02-22T12:36:05.946Z,13.83
2019-02-22T12:38:35.283Z,14.83
2019-02-22T12:41:04.753Z,14.07
2019-02-22T12:43:34.092Z,12.50
2019-02-22T12:46:03.410Z,13.10
2019-02-22T12:48:32.785Z,13.83
2019-02-22T12:51:02.118Z,14.43
2019-02-22T12:53:31.494Z,15.23
2019-02-22T12:56:00.814Z,15.13
2019-02-22T12:58:30.139Z,15.03
2019-02-22T13:00:58.769Z,15.43
2019-02-22T13:03:27.489Z,14.73
2019-02-22T13:05:56.848Z,14.40
2019-02-22T13:08:26.181Z,15.33
2019-02-22T13:10:55.502Z,13.10
2019-02-22T13:13:24.843Z,12.97
2019-02-22T13:15:54.180Z,13.93
2019-02-22T13:18:23.510Z,12.70
2019-02-22T13:20:53.275Z,12.97
2019-02-22T13:23:21.881Z,14.23
2019-02-22T13:25:51.204Z,12.87
2019-02-22T13:28:19.928Z,12.47
2019-02-22T13:30:49.284Z,13.03
2019-02-22T13:33:18.647Z,14.57
2019-02-22T13:35:47.983Z,14.23
2019-02-22T13:38:17.309Z,14.80
2019-02-22T13:40:45.939Z,16.00
2019-02-22T13:43:15.257Z,14.10
2019-02-22T13:45:43.781Z,15.00
2019-02-22T13:48:13.209Z,16.97
2019-02-22T13:50:42.631Z,15.97
2019-02-22T13:53:11.147Z,16.73
2019-02-22T13:58:36.622Z,17.43
2019-02-22T14:01:06.199Z,16.60
2019-02-22T14:03:35.540Z,15.47
2019-02-22T14:06:05.476Z,15.97
2019-02-22T14:08:34.815Z,15.00
2019-02-22T14:11:03.539Z,14.83
2019-02-22T14:13:32.049Z,14.73
2019-02-22T14:16:01.390Z,14.50
2019-02-22T14:18:30.868Z,14.57
2019-02-22T14:21:00.232Z,13.27
2019-02-22T14:23:29.550Z,13.53
2019-02-22T14:25:58.180Z,13.57
2019-02-22T14:28:27.517Z,13.53
2019-02-22T14:30:56.835Z,12.20
2019-02-22T14:33:25.388Z,13.03
2019-02-22T14:35:54.702Z,11.57
2019-02-22T14:38:24.029Z,12.77
2019-02-22T14:40:53.360Z,11.57
2019-02-22T14:43:22.696Z,10.60
2019-02-22T14:45:53.231Z,10.67
2019-02-22T14:48:41.336Z,10.27
2019-02-22T14:51:10.704Z,10.37
2019-02-22T14:53:39.998Z,9.67
2019-02-22T14:56:08.618Z,10.03
2019-02-22T14:58:37.958Z,9.07
2019-02-22T15:04:10.241Z,8.57
2019-02-22T15:06:40.412Z,8.27
2019-02-22T15:09:09.098Z,8.53
2019-02-22T15:11:38.442Z,7.47
2019-02-22T15:14:07.767Z,8.57
2019-02-22T15:16:55.957Z,7.70
2019-02-22T15:19:25.312Z,7.47
2019-02-22T15:21:54.649Z,8.10
2019-02-22T15:24:23.978Z,8.40
2019-02-22T15:26:54.149Z,9.57
2019-02-22T15:29:42.532Z,8.60
2019-02-22T15:32:11.852Z,9.20
2019-02-22T15:34:41.179Z,10.37
2019-02-22T15:37:09.800Z,11.10
2019-02-22T15:39:38.323Z,9.07
2019-02-22T15:42:07.648Z,9.43
2019-02-22T15:44:37.064Z,8.27
2019-02-22T15:47:11.900Z,7.67
2019-02-22T15:49:56.033Z,7.40
2019-02-22T15:52:25.363Z,7.30
2019-02-22T15:54:54.699Z,8.83
2019-02-22T15:57:25.110Z,9.03
2019-02-22T15:59:54.141Z,8.60
2019-02-22T16:02:23.459Z,7.90
2019-02-22T16:04:56.200Z,7.23
2019-02-22T16:07:25.031Z,7.80
2019-02-22T16:09:54.612Z,8.20
2019-02-22T16:12:23.215Z,9.80
2019-02-22T16:14:52.147Z,9.47
2019-02-22T16:17:21.480Z,9.27
2019-02-22T16:19:51.568Z,8.90
2019-02-22T16:22:39.219Z,8.10
2019-02-22T16:25:19.158Z,8.80
2019-02-22T16:27:57.774Z,8.57
2019-02-22T16:33:24.646Z,9.60
2019-02-22T16:35:53.294Z,9.10
2019-02-22T16:38:21.916Z,8.47
2019-02-22T16:40:51.355Z,10.03
2019-02-22T16:43:20.814Z,9.67
2019-02-22T16:45:50.246Z,9.63
2019-02-22T16:48:19.660Z,8.80
2019-02-22T16:50:49.190Z,8.40
2019-02-22T16:53:18.625Z,7.57
2019-02-22T16:55:48.048Z,8.70
2019-02-22T16:58:17.403Z,8.93
2019-02-22T17:00:46.034Z,7.80
2019-02-22T17:03:15.429Z,8.40
2019-02-22T17:05:44.787Z,8.27
2019-02-22T17:08:14.223Z,8.53
2019-02-22T17:10:43.684Z,8.07
2019-02-22T17:13:13.094Z,10.40
2019-02-22T17:15:42.658Z,10.63
2019-02-22T17:18:12.072Z,10.07
2019-02-22T17:20:40.893Z,9.83
2019-02-22T17:23:10.276Z,9.73
2019-02-22T17:25:39.657Z,10.90
2019-02-22T17:28:09.513Z,9.70
2019-02-22T17:30:38.836Z,9.60
2019-02-22T17:33:07.471Z,9.53
2019-02-22T17:35:36.798Z,10.90
2019-02-22T17:38:06.132Z,11.83
2019-02-22T17:40:35.462Z,12.23
2019-02-22T17:43:04.797Z,12.90
2019-02-22T17:45:34.118Z,14.10
2019-02-22T17:48:03.460Z,12.90
2019-02-22T17:50:32.778Z,13.73
2019-02-22T17:53:01.404Z,13.83
2019-02-22T17:55:30.844Z,12.27
2019-02-22T17:57:59.445Z,13.27
2019-02-22T18:00:28.785Z,12.50
2019-02-22T18:02:57.411Z,15.90
2019-02-22T18:05:26.791Z,17.10
2019-02-22T18:07:56.136Z,17.87
2019-02-22T18:10:25.489Z,19.67
2019-02-22T18:12:54.823Z,16.67
2019-02-22T18:15:24.354Z,17.77
2019-02-22T18:17:53.778Z,18.67
2019-02-22T18:20:23.122Z,18.40
2019-02-22T18:22:54.295Z,19.53
2019-02-22T18:25:22.836Z,19.30
2019-02-22T18:27:52.423Z,19.13
2019-02-22T18:30:21.785Z,21.70
2019-02-22T18:32:50.419Z,24.20
2019-02-22T18:35:19.760Z,26.10
2019-02-22T18:37:49.115Z,26.87
2019-02-22T18:40:18.657Z,30.83
2019-02-22T18:42:48.102Z,31.57
2019-02-22T18:45:17.437Z,31.73
2019-02-22T18:47:46.830Z,33.63
2019-02-22T18:50:16.226Z,32.00
2019-02-22T18:52:45.495Z,32.47
2019-02-22T18:55:14.868Z,36.13
2019-02-22T18:57:44.235Z,34.73
2019-02-22T19:00:14.660Z,33.27
2019-02-22T19:02:43.279Z,33.63
2019-02-22T19:05:12.605Z,37.33
2019-02-22T19:07:41.950Z,31.07
2019-02-22T19:10:11.430Z,32.20
2019-02-22T19:12:41.153Z,29.20
2019-02-22T19:15:11.620Z,24.93
2019-02-22T19:17:40.946Z,25.07
2019-02-22T19:20:12.076Z,24.23
2019-02-22T19:22:40.724Z,25.33
2019-02-22T19:25:10.151Z,24.47
2019-02-22T19:27:38.729Z,25.53
2019-02-22T19:30:11.144Z,26.03
2019-02-22T19:32:39.958Z,27.90
2019-02-22T19:35:08.870Z,29.00
2019-02-22T19:37:38.198Z,27.60
2019-02-22T19:40:10.347Z,30.80
2019-02-22T19:42:38.907Z,29.40
2019-02-22T19:45:10.525Z,29.40
2019-02-22T19:47:42.095Z,26.97
2019-02-22T19:50:11.184Z,27.00
2019-02-22T19:52:40.645Z,23.53
2019-02-22T19:55:11.157Z,22.53
2019-02-22T19:57:40.456Z,22.47
2019-02-22T20:00:12.275Z,25.67
2019-02-22T20:02:40.920Z,23.37
2019-02-22T20:05:10.687Z,19.07
2019-02-22T20:07:39.367Z,18.07
2019-02-22T20:10:17.835Z,13.37
2019-02-22T20:12:40.793Z,11.47
2019-02-22T20:15:11.483Z,8.97
2019-02-22T20:17:40.427Z,8.37
2019-02-22T20:20:11.165Z,8.13
2019-02-22T20:22:39.694Z,7.27
2019-02-22T20:25:09.365Z,6.73
2019-02-22T20:27:38.293Z,5.30
2019-02-22T20:30:09.940Z,4.27
2019-02-22T20:32:38.566Z,2.93
2019-02-22T20:35:10.105Z,3.70
2019-02-22T20:37:39.030Z,3.67
2019-02-22T20:40:27.892Z,3.50
2019-02-22T20:42:57.213Z,3.80
2019-02-22T20:45:46.022Z,4.07
2019-02-22T20:48:15.460Z,3.47
2019-02-22T20:50:44.863Z,3.87
2019-02-22T20:53:14.249Z,3.57
2019-02-22T20:55:43.733Z,3.87
2019-02-22T20:58:12.347Z,3.63
2019-02-22T21:00:40.886Z,3.30
2019-02-22T21:03:09.600Z,2.80
2019-02-22T21:05:38.949Z,3.20
2019-02-22T21:08:08.263Z,2.50
2019-02-22T21:10:37.578Z,2.90
2019-02-22T21:13:06.981Z,2.70
2019-02-22T21:15:36.329Z,2.80
2019-02-22T21:18:15.960Z,2.50
2019-02-22T21:20:54.859Z,3.03
2019-02-22T21:23:24.223Z,2.20
2019-02-22T21:25:53.254Z,2.23
2019-02-22T21:28:22.559Z,2.30
2019-02-22T21:30:51.203Z,2.50
2019-02-22T21:33:20.506Z,2.73
2019-02-22T21:35:49.817Z,2.70
2019-02-22T21:38:19.173Z,2.27
2019-02-22T21:40:48.503Z,2.43
2019-02-22T21:43:17.816Z,2.90
2019-02-22T21:45:47.229Z,2.60
2019-02-22T21:48:26.917Z,2.50
2019-02-22T21:50:46.170Z,2.67
2019-02-22T21:53:15.499Z,2.63
2019-02-22T21:55:44.843Z,2.30
2019-02-22T21:58:14.152Z,2.50
2019-02-22T22:00:43.508Z,2.50
2019-02-22T22:03:12.819Z,2.27
2019-02-22T22:05:42.139Z,2.40
2019-02-22T22:08:11.490Z,2.33
2019-02-22T22:10:40.791Z,2.23
2019-02-22T22:13:10.100Z,2.20
2019-02-22T22:15:39.438Z,2.40
2019-02-22T22:18:08.766Z,2.57
2019-02-22T22:20:37.962Z,2.77
2019-02-22T22:23:26.460Z,2.83
2019-02-22T22:25:55.107Z,2.83
2019-02-22T22:28:24.763Z,2.87
2019-02-22T22:30:54.140Z,2.80
2019-02-22T22:33:24.256Z,3.03
2019-02-22T22:35:53.602Z,3.10
2019-02-22T22:38:22.908Z,2.33
2019-02-22T22:40:51.437Z,2.67
2019-02-22T22:43:20.807Z,2.90
2019-02-22T22:45:49.471Z,3.10
2019-02-22T22:48:18.105Z,2.70
2019-02-22T22:50:46.654Z,3.27
2019-02-22T22:53:15.986Z,2.73
2019-02-22T22:55:45.292Z,3.60
2019-02-22T22:58:15.662Z,3.07
2019-02-22T23:01:08.840Z,3.50
2019-02-22T23:03:38.447Z,3.00
2019-02-22T23:06:09.185Z,3.00
2019-02-22T23:08:37.988Z,3.23
2019-02-22T23:11:08.982Z,3.20
2019-02-22T23:13:38.323Z,3.00
2019-02-22T23:16:08.408Z,2.80
2019-02-22T23:21:22.263Z,3.23
2019-02-22T23:23:51.247Z,3.00
2019-02-22T23:26:20.592Z,3.60
2019-02-22T23:28:50.198Z,4.03
2019-02-22T23:31:19.523Z,3.03
2019-02-22T23:39:13.451Z,3.40
2019-02-22T23:41:41.969Z,3.10
2019-02-22T23:44:10.834Z,2.80
2019-02-22T23:46:40.436Z,3.20
2019-02-22T23:49:13.116Z,3.10
2019-02-22T23:51:59.294Z,3.03
2019-02-22T23:54:28.200Z,2.90
2019-02-22T23:56:57.510Z,3.80
2019-02-22T23:59:26.822Z,3.60
